sensor_id;sensor_type;location;lat;lon;timestamp;P1;durP1;ratioP1;P2;durP2;ratioP2
4047;SDS011;2038;51.728;6.674;2024-03-06T00:02:07;37.10;;;24.80;;
4047;SDS011;2038;51.728;6.674;2024-03-06T00:04:34;38.23;;;24.07;;
4047;SDS011;2038;51.728;6.674;2024-03-06T00:07:00;39.20;;;26.07;;
4047;SDS011;2038;51.728;6.674;2024-03-06T00:09:27;36.90;;;23.80;;
4047;SDS011;2038;51.728;6.674;2024-03-06T00:11:53;38.93;;;26.70;;
4047;SDS011;2038;51.728;6.674;2024-03-06T00:14:21;38.63;;;24.93;;
4047;SDS011;2038;51.728;6.674;2024-03-06T00:16:48;32.93;;;22.53;;
4047;SDS011;2038;51.728;6.674;2024-03-06T00:19:16;39.30;;;25.50;;
4047;SDS011;2038;51.728;6.674;2024-03-06T00:21:43;36.40;;;23.83;;
4047;SDS011;2038;51.728;6.674;2024-03-06T00:24:13;31.13;;;23.83;;
4047;SDS011;2038;51.728;6.674;2024-03-06T00:26:41;35.10;;;22.70;;
4047;SDS011;2038;51.728;6.674;2024-03-06T00:29:09;36.03;;;21.63;;
4047;SDS011;2038;51.728;6.674;2024-03-06T00:31:36;30.97;;;22.80;;
4047;SDS011;2038;51.728;6.674;2024-03-06T00:34:08;37.40;;;24.73;;
4047;SDS011;2038;51.728;6.674;2024-03-06T00:36:39;44.10;;;26.60;;
4047;SDS011;2038;51.728;6.674;2024-03-06T00:39:05;36.70;;;25.23;;
4047;SDS011;2038;51.728;6.674;2024-03-06T00:41:33;40.00;;;23.73;;
4047;SDS011;2038;51.728;6.674;2024-03-06T00:44:00;37.00;;;22.40;;
4047;SDS011;2038;51.728;6.674;2024-03-06T00:46:27;41.60;;;25.20;;
4047;SDS011;2038;51.728;6.674;2024-03-06T00:48:53;39.70;;;26.57;;
4047;SDS011;2038;51.728;6.674;2024-03-06T00:51:19;41.30;;;25.30;;
4047;SDS011;2038;51.728;6.674;2024-03-06T00:53:46;44.53;;;25.83;;
4047;SDS011;2038;51.728;6.674;2024-03-06T00:56:12;39.97;;;27.90;;
4047;SDS011;2038;51.728;6.674;2024-03-06T00:58:38;36.97;;;26.67;;
4047;SDS011;2038;51.728;6.674;2024-03-06T01:01:05;41.47;;;26.57;;
4047;SDS011;2038;51.728;6.674;2024-03-06T01:03:31;39.70;;;25.33;;
4047;SDS011;2038;51.728;6.674;2024-03-06T01:05:57;39.40;;;25.93;;
4047;SDS011;2038;51.728;6.674;2024-03-06T01:08:23;41.63;;;29.03;;
4047;SDS011;2038;51.728;6.674;2024-03-06T01:10:50;41.80;;;27.07;;
4047;SDS011;2038;51.728;6.674;2024-03-06T01:13:17;38.47;;;25.50;;
4047;SDS011;2038;51.728;6.674;2024-03-06T01:15:45;38.80;;;25.20;;
4047;SDS011;2038;51.728;6.674;2024-03-06T01:18:11;42.73;;;26.90;;
4047;SDS011;2038;51.728;6.674;2024-03-06T01:20:38;32.93;;;25.03;;
4047;SDS011;2038;51.728;6.674;2024-03-06T01:23:05;39.73;;;25.90;;
4047;SDS011;2038;51.728;6.674;2024-03-06T01:25:31;39.07;;;27.57;;
4047;SDS011;2038;51.728;6.674;2024-03-06T01:27:58;35.07;;;23.33;;
4047;SDS011;2038;51.728;6.674;2024-03-06T01:30:24;37.20;;;24.03;;
4047;SDS011;2038;51.728;6.674;2024-03-06T01:32:50;38.40;;;23.93;;
4047;SDS011;2038;51.728;6.674;2024-03-06T01:35:16;43.83;;;27.03;;
4047;SDS011;2038;51.728;6.674;2024-03-06T01:37:43;41.73;;;27.60;;
4047;SDS011;2038;51.728;6.674;2024-03-06T01:40:09;47.00;;;27.13;;
4047;SDS011;2038;51.728;6.674;2024-03-06T01:42:37;39.33;;;26.20;;
4047;SDS011;2038;51.728;6.674;2024-03-06T01:45:03;36.20;;;25.63;;
4047;SDS011;2038;51.728;6.674;2024-03-06T01:47:30;39.43;;;27.70;;
4047;SDS011;2038;51.728;6.674;2024-03-06T01:49:57;38.57;;;28.23;;
4047;SDS011;2038;51.728;6.674;2024-03-06T01:52:23;37.57;;;25.40;;
4047;SDS011;2038;51.728;6.674;2024-03-06T01:54:50;37.33;;;26.17;;
4047;SDS011;2038;51.728;6.674;2024-03-06T01:57:17;39.77;;;26.27;;
4047;SDS011;2038;51.728;6.674;2024-03-06T01:59:45;36.03;;;24.43;;
4047;SDS011;2038;51.728;6.674;2024-03-06T02:02:12;37.20;;;25.47;;
4047;SDS011;2038;51.728;6.674;2024-03-06T02:04:39;41.13;;;28.37;;
4047;SDS011;2038;51.728;6.674;2024-03-06T02:07:08;40.30;;;28.13;;
4047;SDS011;2038;51.728;6.674;2024-03-06T02:09:38;42.13;;;29.30;;
4047;SDS011;2038;51.728;6.674;2024-03-06T02:12:05;44.17;;;28.90;;
4047;SDS011;2038;51.728;6.674;2024-03-06T02:14:36;44.00;;;28.70;;
4047;SDS011;2038;51.728;6.674;2024-03-06T02:17:02;41.70;;;25.93;;
4047;SDS011;2038;51.728;6.674;2024-03-06T02:19:39;38.83;;;26.47;;
4047;SDS011;2038;51.728;6.674;2024-03-06T02:22:07;40.13;;;27.70;;
4047;SDS011;2038;51.728;6.674;2024-03-06T02:24:34;37.97;;;25.47;;
4047;SDS011;2038;51.728;6.674;2024-03-06T02:27:01;37.73;;;27.47;;
4047;SDS011;2038;51.728;6.674;2024-03-06T02:29:30;39.57;;;26.83;;
4047;SDS011;2038;51.728;6.674;2024-03-06T02:32:00;44.73;;;27.47;;
4047;SDS011;2038;51.728;6.674;2024-03-06T02:34:27;36.97;;;26.07;;
4047;SDS011;2038;51.728;6.674;2024-03-06T02:36:55;47.13;;;28.80;;
4047;SDS011;2038;51.728;6.674;2024-03-06T02:39:21;41.83;;;29.47;;
4047;SDS011;2038;51.728;6.674;2024-03-06T02:41:48;39.83;;;26.97;;
4047;SDS011;2038;51.728;6.674;2024-03-06T02:44:14;41.67;;;26.90;;
4047;SDS011;2038;51.728;6.674;2024-03-06T02:46:46;38.87;;;25.90;;
4047;SDS011;2038;51.728;6.674;2024-03-06T02:49:16;40.43;;;28.93;;
4047;SDS011;2038;51.728;6.674;2024-03-06T02:51:43;41.27;;;28.40;;
4047;SDS011;2038;51.728;6.674;2024-03-06T02:54:10;42.63;;;27.60;;
4047;SDS011;2038;51.728;6.674;2024-03-06T02:56:36;38.63;;;27.97;;
4047;SDS011;2038;51.728;6.674;2024-03-06T02:59:02;44.60;;;29.90;;
4047;SDS011;2038;51.728;6.674;2024-03-06T03:01:29;37.20;;;28.00;;
4047;SDS011;2038;51.728;6.674;2024-03-06T03:03:55;39.53;;;27.93;;
4047;SDS011;2038;51.728;6.674;2024-03-06T03:06:22;34.80;;;26.00;;
4047;SDS011;2038;51.728;6.674;2024-03-06T03:08:51;41.60;;;28.10;;
4047;SDS011;2038;51.728;6.674;2024-03-06T03:11:18;36.00;;;25.50;;
4047;SDS011;2038;51.728;6.674;2024-03-06T03:13:44;41.53;;;27.40;;
4047;SDS011;2038;51.728;6.674;2024-03-06T03:16:17;41.17;;;27.50;;
4047;SDS011;2038;51.728;6.674;2024-03-06T03:18:45;47.07;;;30.47;;
4047;SDS011;2038;51.728;6.674;2024-03-06T03:21:13;48.00;;;28.10;;
4047;SDS011;2038;51.728;6.674;2024-03-06T03:23:40;47.07;;;31.10;;
4047;SDS011;2038;51.728;6.674;2024-03-06T03:26:07;43.60;;;32.13;;
4047;SDS011;2038;51.728;6.674;2024-03-06T03:28:37;42.87;;;30.40;;
4047;SDS011;2038;51.728;6.674;2024-03-06T03:31:07;42.33;;;26.53;;
4047;SDS011;2038;51.728;6.674;2024-03-06T03:33:39;45.53;;;29.70;;
4047;SDS011;2038;51.728;6.674;2024-03-06T03:36:07;51.63;;;31.50;;
4047;SDS011;2038;51.728;6.674;2024-03-06T03:38:35;43.63;;;29.60;;
4047;SDS011;2038;51.728;6.674;2024-03-06T03:41:09;43.80;;;28.07;;
4047;SDS011;2038;51.728;6.674;2024-03-06T03:43:40;40.23;;;27.17;;
4047;SDS011;2038;51.728;6.674;2024-03-06T03:46:07;34.43;;;24.80;;
4047;SDS011;2038;51.728;6.674;2024-03-06T03:48:34;39.77;;;26.00;;
4047;SDS011;2038;51.728;6.674;2024-03-06T03:51:02;39.43;;;26.30;;
4047;SDS011;2038;51.728;6.674;2024-03-06T03:53:30;34.57;;;24.50;;
4047;SDS011;2038;51.728;6.674;2024-03-06T03:55:56;34.83;;;22.13;;
4047;SDS011;2038;51.728;6.674;2024-03-06T03:58:22;32.40;;;23.67;;
4047;SDS011;2038;51.728;6.674;2024-03-06T04:00:49;29.60;;;19.97;;
4047;SDS011;2038;51.728;6.674;2024-03-06T04:03:18;22.33;;;18.80;;
4047;SDS011;2038;51.728;6.674;2024-03-06T04:05:46;64.03;;;23.47;;
4047;SDS011;2038;51.728;6.674;2024-03-06T04:08:13;22.77;;;17.83;;
4047;SDS011;2038;51.728;6.674;2024-03-06T04:10:41;26.50;;;20.50;;
4047;SDS011;2038;51.728;6.674;2024-03-06T04:13:11;27.93;;;19.00;;
4047;SDS011;2038;51.728;6.674;2024-03-06T04:15:38;28.27;;;20.57;;
4047;SDS011;2038;51.728;6.674;2024-03-06T04:18:04;32.40;;;21.03;;
4047;SDS011;2038;51.728;6.674;2024-03-06T04:20:30;31.30;;;21.67;;
4047;SDS011;2038;51.728;6.674;2024-03-06T04:22:57;30.93;;;21.27;;
4047;SDS011;2038;51.728;6.674;2024-03-06T04:25:23;35.63;;;24.47;;
4047;SDS011;2038;51.728;6.674;2024-03-06T04:27:49;31.13;;;23.63;;
4047;SDS011;2038;51.728;6.674;2024-03-06T04:30:16;24.30;;;18.43;;
4047;SDS011;2038;51.728;6.674;2024-03-06T04:32:42;27.83;;;19.33;;
4047;SDS011;2038;51.728;6.674;2024-03-06T04:35:09;21.80;;;17.90;;
4047;SDS011;2038;51.728;6.674;2024-03-06T04:37:36;23.00;;;18.67;;
4047;SDS011;2038;51.728;6.674;2024-03-06T04:40:03;18.73;;;16.57;;
4047;SDS011;2038;51.728;6.674;2024-03-06T04:42:36;22.30;;;17.33;;
4047;SDS011;2038;51.728;6.674;2024-03-06T04:45:03;24.97;;;19.60;;
4047;SDS011;2038;51.728;6.674;2024-03-06T04:47:40;29.07;;;19.70;;
4047;SDS011;2038;51.728;6.674;2024-03-06T04:50:10;30.70;;;21.87;;
4047;SDS011;2038;51.728;6.674;2024-03-06T04:52:39;34.33;;;23.50;;
4047;SDS011;2038;51.728;6.674;2024-03-06T04:55:06;34.17;;;22.90;;
4047;SDS011;2038;51.728;6.674;2024-03-06T04:57:37;35.13;;;25.07;;
4047;SDS011;2038;51.728;6.674;2024-03-06T05:00:06;43.63;;;23.67;;
4047;SDS011;2038;51.728;6.674;2024-03-06T05:02:33;29.10;;;21.40;;
4047;SDS011;2038;51.728;6.674;2024-03-06T05:05:01;27.53;;;22.20;;
4047;SDS011;2038;51.728;6.674;2024-03-06T05:07:32;28.57;;;20.20;;
4047;SDS011;2038;51.728;6.674;2024-03-06T05:09:59;38.77;;;26.57;;
4047;SDS011;2038;51.728;6.674;2024-03-06T05:12:26;59.80;;;30.70;;
4047;SDS011;2038;51.728;6.674;2024-03-06T05:14:53;81.37;;;31.10;;
4047;SDS011;2038;51.728;6.674;2024-03-06T05:17:20;41.53;;;27.77;;
4047;SDS011;2038;51.728;6.674;2024-03-06T05:19:48;38.73;;;25.37;;
4047;SDS011;2038;51.728;6.674;2024-03-06T05:22:15;43.23;;;26.37;;
4047;SDS011;2038;51.728;6.674;2024-03-06T05:24:42;46.60;;;26.20;;
4047;SDS011;2038;51.728;6.674;2024-03-06T05:27:09;41.63;;;27.87;;
4047;SDS011;2038;51.728;6.674;2024-03-06T05:29:38;34.57;;;24.70;;
4047;SDS011;2038;51.728;6.674;2024-03-06T05:32:05;34.73;;;25.10;;
4047;SDS011;2038;51.728;6.674;2024-03-06T05:34:33;31.10;;;22.20;;
4047;SDS011;2038;51.728;6.674;2024-03-06T05:37:00;44.33;;;28.83;;
4047;SDS011;2038;51.728;6.674;2024-03-06T05:39:29;39.30;;;28.27;;
4047;SDS011;2038;51.728;6.674;2024-03-06T05:41:59;42.77;;;27.97;;
4047;SDS011;2038;51.728;6.674;2024-03-06T05:44:29;42.23;;;28.03;;
4047;SDS011;2038;51.728;6.674;2024-03-06T05:47:00;58.07;;;32.20;;
4047;SDS011;2038;51.728;6.674;2024-03-06T05:49:28;41.70;;;28.73;;
4047;SDS011;2038;51.728;6.674;2024-03-06T05:51:54;38.53;;;26.37;;
4047;SDS011;2038;51.728;6.674;2024-03-06T05:54:21;56.00;;;27.77;;
4047;SDS011;2038;51.728;6.674;2024-03-06T05:56:48;40.80;;;27.70;;
4047;SDS011;2038;51.728;6.674;2024-03-06T05:59:18;43.47;;;27.07;;
4047;SDS011;2038;51.728;6.674;2024-03-06T06:01:45;40.30;;;26.80;;
4047;SDS011;2038;51.728;6.674;2024-03-06T06:04:12;38.57;;;26.20;;
4047;SDS011;2038;51.728;6.674;2024-03-06T06:06:39;46.43;;;27.63;;
4047;SDS011;2038;51.728;6.674;2024-03-06T06:09:06;46.33;;;30.10;;
4047;SDS011;2038;51.728;6.674;2024-03-06T06:11:37;43.40;;;27.43;;
4047;SDS011;2038;51.728;6.674;2024-03-06T06:14:04;47.90;;;29.10;;
4047;SDS011;2038;51.728;6.674;2024-03-06T06:16:34;45.13;;;25.13;;
4047;SDS011;2038;51.728;6.674;2024-03-06T06:19:02;34.23;;;25.73;;
4047;SDS011;2038;51.728;6.674;2024-03-06T06:21:29;31.27;;;24.10;;
4047;SDS011;2038;51.728;6.674;2024-03-06T06:23:55;34.97;;;24.13;;
4047;SDS011;2038;51.728;6.674;2024-03-06T06:26:22;39.07;;;23.73;;
4047;SDS011;2038;51.728;6.674;2024-03-06T06:28:48;31.10;;;23.10;;
4047;SDS011;2038;51.728;6.674;2024-03-06T06:31:14;27.40;;;21.97;;
4047;SDS011;2038;51.728;6.674;2024-03-06T06:33:41;28.97;;;23.47;;
4047;SDS011;2038;51.728;6.674;2024-03-06T06:36:07;29.40;;;21.93;;
4047;SDS011;2038;51.728;6.674;2024-03-06T06:38:34;30.73;;;21.70;;
4047;SDS011;2038;51.728;6.674;2024-03-06T06:41:00;29.90;;;21.90;;
4047;SDS011;2038;51.728;6.674;2024-03-06T06:43:27;30.80;;;23.40;;
4047;SDS011;2038;51.728;6.674;2024-03-06T06:45:54;32.50;;;23.20;;
4047;SDS011;2038;51.728;6.674;2024-03-06T06:48:20;32.80;;;23.27;;
4047;SDS011;2038;51.728;6.674;2024-03-06T06:50:46;32.73;;;23.20;;
4047;SDS011;2038;51.728;6.674;2024-03-06T06:53:13;30.77;;;22.67;;
4047;SDS011;2038;51.728;6.674;2024-03-06T06:55:39;33.87;;;24.50;;
4047;SDS011;2038;51.728;6.674;2024-03-06T06:58:05;36.43;;;25.30;;
4047;SDS011;2038;51.728;6.674;2024-03-06T07:00:31;32.97;;;26.07;;
4047;SDS011;2038;51.728;6.674;2024-03-06T07:02:59;38.83;;;27.30;;
4047;SDS011;2038;51.728;6.674;2024-03-06T07:05:25;32.80;;;25.17;;
4047;SDS011;2038;51.728;6.674;2024-03-06T07:07:51;30.00;;;23.30;;
4047;SDS011;2038;51.728;6.674;2024-03-06T07:10:18;35.17;;;25.20;;
4047;SDS011;2038;51.728;6.674;2024-03-06T07:12:44;29.97;;;24.00;;
4047;SDS011;2038;51.728;6.674;2024-03-06T07:15:11;35.30;;;24.00;;
4047;SDS011;2038;51.728;6.674;2024-03-06T07:17:37;35.57;;;25.53;;
4047;SDS011;2038;51.728;6.674;2024-03-06T07:20:04;38.27;;;26.27;;
4047;SDS011;2038;51.728;6.674;2024-03-06T07:22:31;33.70;;;26.23;;
4047;SDS011;2038;51.728;6.674;2024-03-06T07:24:59;34.77;;;25.83;;
4047;SDS011;2038;51.728;6.674;2024-03-06T07:27:27;33.73;;;26.17;;
4047;SDS011;2038;51.728;6.674;2024-03-06T07:29:53;41.97;;;28.93;;
4047;SDS011;2038;51.728;6.674;2024-03-06T07:32:19;37.03;;;26.73;;
4047;SDS011;2038;51.728;6.674;2024-03-06T07:34:46;31.97;;;25.20;;
4047;SDS011;2038;51.728;6.674;2024-03-06T07:37:12;38.40;;;27.70;;
4047;SDS011;2038;51.728;6.674;2024-03-06T07:39:39;36.90;;;27.40;;
4047;SDS011;2038;51.728;6.674;2024-03-06T07:42:06;38.90;;;28.73;;
4047;SDS011;2038;51.728;6.674;2024-03-06T07:44:32;38.73;;;27.70;;
4047;SDS011;2038;51.728;6.674;2024-03-06T07:47:00;35.97;;;28.57;;
4047;SDS011;2038;51.728;6.674;2024-03-06T07:49:26;42.53;;;29.53;;
4047;SDS011;2038;51.728;6.674;2024-03-06T07:51:53;44.53;;;28.73;;
4047;SDS011;2038;51.728;6.674;2024-03-06T07:54:19;42.43;;;31.43;;
4047;SDS011;2038;51.728;6.674;2024-03-06T07:56:45;43.80;;;32.83;;
4047;SDS011;2038;51.728;6.674;2024-03-06T07:59:13;43.43;;;31.90;;
4047;SDS011;2038;51.728;6.674;2024-03-06T08:01:40;47.93;;;32.03;;
4047;SDS011;2038;51.728;6.674;2024-03-06T08:04:06;55.00;;;35.33;;
4047;SDS011;2038;51.728;6.674;2024-03-06T08:06:33;43.73;;;32.33;;
4047;SDS011;2038;51.728;6.674;2024-03-06T08:09:02;41.43;;;31.00;;
4047;SDS011;2038;51.728;6.674;2024-03-06T08:11:28;45.10;;;32.30;;
4047;SDS011;2038;51.728;6.674;2024-03-06T08:13:58;50.73;;;35.60;;
4047;SDS011;2038;51.728;6.674;2024-03-06T08:16:26;59.50;;;37.83;;
4047;SDS011;2038;51.728;6.674;2024-03-06T08:18:55;60.73;;;38.07;;
4047;SDS011;2038;51.728;6.674;2024-03-06T08:21:23;73.30;;;41.70;;
4047;SDS011;2038;51.728;6.674;2024-03-06T08:23:49;82.47;;;42.67;;
4047;SDS011;2038;51.728;6.674;2024-03-06T08:26:15;87.80;;;41.63;;
4047;SDS011;2038;51.728;6.674;2024-03-06T08:28:43;90.23;;;47.40;;
4047;SDS011;2038;51.728;6.674;2024-03-06T08:31:09;76.50;;;42.23;;
4047;SDS011;2038;51.728;6.674;2024-03-06T08:33:36;67.97;;;39.47;;
4047;SDS011;2038;51.728;6.674;2024-03-06T08:36:02;57.67;;;36.90;;
4047;SDS011;2038;51.728;6.674;2024-03-06T08:38:29;71.13;;;40.23;;
4047;SDS011;2038;51.728;6.674;2024-03-06T08:40:55;78.10;;;41.83;;
4047;SDS011;2038;51.728;6.674;2024-03-06T08:43:21;63.00;;;37.87;;
4047;SDS011;2038;51.728;6.674;2024-03-06T08:45:48;78.50;;;42.07;;
4047;SDS011;2038;51.728;6.674;2024-03-06T08:48:14;76.30;;;40.17;;
4047;SDS011;2038;51.728;6.674;2024-03-06T08:50:40;82.00;;;41.87;;
4047;SDS011;2038;51.728;6.674;2024-03-06T08:53:06;76.67;;;42.87;;
4047;SDS011;2038;51.728;6.674;2024-03-06T08:55:35;79.87;;;42.23;;
4047;SDS011;2038;51.728;6.674;2024-03-06T08:58:01;62.33;;;36.90;;
4047;SDS011;2038;51.728;6.674;2024-03-06T09:00:28;68.80;;;42.20;;
4047;SDS011;2038;51.728;6.674;2024-03-06T09:02:54;65.10;;;39.57;;
4047;SDS011;2038;51.728;6.674;2024-03-06T09:05:20;73.53;;;39.33;;
4047;SDS011;2038;51.728;6.674;2024-03-06T09:07:47;74.83;;;40.60;;
4047;SDS011;2038;51.728;6.674;2024-03-06T09:10:13;63.23;;;37.40;;
4047;SDS011;2038;51.728;6.674;2024-03-06T09:12:39;64.80;;;37.20;;
4047;SDS011;2038;51.728;6.674;2024-03-06T09:15:06;75.30;;;43.10;;
4047;SDS011;2038;51.728;6.674;2024-03-06T09:17:33;78.90;;;42.50;;
4047;SDS011;2038;51.728;6.674;2024-03-06T09:20:00;84.63;;;46.13;;
4047;SDS011;2038;51.728;6.674;2024-03-06T09:22:34;98.77;;;46.50;;
4047;SDS011;2038;51.728;6.674;2024-03-06T09:25:05;106.50;;;47.17;;
4047;SDS011;2038;51.728;6.674;2024-03-06T09:27:32;92.40;;;47.77;;
4047;SDS011;2038;51.728;6.674;2024-03-06T09:29:58;90.00;;;48.00;;
4047;SDS011;2038;51.728;6.674;2024-03-06T09:32:24;88.60;;;45.70;;
4047;SDS011;2038;51.728;6.674;2024-03-06T09:34:51;90.20;;;51.37;;
4047;SDS011;2038;51.728;6.674;2024-03-06T09:37:18;113.57;;;51.97;;
4047;SDS011;2038;51.728;6.674;2024-03-06T09:39:45;116.37;;;55.93;;
4047;SDS011;2038;51.728;6.674;2024-03-06T09:42:17;125.47;;;54.30;;
4047;SDS011;2038;51.728;6.674;2024-03-06T09:44:43;125.93;;;54.17;;
4047;SDS011;2038;51.728;6.674;2024-03-06T09:47:12;120.57;;;55.07;;
4047;SDS011;2038;51.728;6.674;2024-03-06T09:49:39;138.47;;;60.53;;
4047;SDS011;2038;51.728;6.674;2024-03-06T09:52:06;126.13;;;54.40;;
4047;SDS011;2038;51.728;6.674;2024-03-06T09:54:33;139.07;;;57.33;;
4047;SDS011;2038;51.728;6.674;2024-03-06T09:56:59;125.57;;;58.90;;
4047;SDS011;2038;51.728;6.674;2024-03-06T09:59:26;122.83;;;54.53;;
4047;SDS011;2038;51.728;6.674;2024-03-06T10:01:53;126.17;;;57.13;;
4047;SDS011;2038;51.728;6.674;2024-03-06T10:04:26;133.80;;;60.27;;
4047;SDS011;2038;51.728;6.674;2024-03-06T10:06:54;139.27;;;61.70;;
4047;SDS011;2038;51.728;6.674;2024-03-06T10:09:25;128.97;;;61.60;;
4047;SDS011;2038;51.728;6.674;2024-03-06T10:11:52;147.67;;;64.73;;
4047;SDS011;2038;51.728;6.674;2024-03-06T10:14:21;164.80;;;69.13;;
4047;SDS011;2038;51.728;6.674;2024-03-06T10:16:52;155.80;;;69.60;;
4047;SDS011;2038;51.728;6.674;2024-03-06T10:19:26;145.23;;;68.83;;
4047;SDS011;2038;51.728;6.674;2024-03-06T10:21:54;143.87;;;66.00;;
4047;SDS011;2038;51.728;6.674;2024-03-06T10:24:23;135.93;;;65.47;;
4047;SDS011;2038;51.728;6.674;2024-03-06T10:26:52;161.57;;;76.10;;
4047;SDS011;2038;51.728;6.674;2024-03-06T10:29:25;161.17;;;75.80;;
4047;SDS011;2038;51.728;6.674;2024-03-06T10:31:55;158.60;;;78.20;;
4047;SDS011;2038;51.728;6.674;2024-03-06T10:34:24;176.63;;;81.60;;
4047;SDS011;2038;51.728;6.674;2024-03-06T10:36:59;188.77;;;83.20;;
4047;SDS011;2038;51.728;6.674;2024-03-06T10:39:34;192.50;;;91.30;;
4047;SDS011;2038;51.728;6.674;2024-03-06T10:42:07;183.17;;;81.33;;
4047;SDS011;2038;51.728;6.674;2024-03-06T10:44:38;170.57;;;79.40;;
4047;SDS011;2038;51.728;6.674;2024-03-06T10:47:17;174.73;;;84.77;;
4047;SDS011;2038;51.728;6.674;2024-03-06T10:49:44;161.43;;;79.83;;
4047;SDS011;2038;51.728;6.674;2024-03-06T10:52:13;148.03;;;74.60;;
4047;SDS011;2038;51.728;6.674;2024-03-06T10:54:43;165.23;;;79.33;;
4047;SDS011;2038;51.728;6.674;2024-03-06T10:57:13;165.83;;;84.17;;
4047;SDS011;2038;51.728;6.674;2024-03-06T10:59:40;163.50;;;76.90;;
4047;SDS011;2038;51.728;6.674;2024-03-06T11:02:07;173.67;;;79.53;;
4047;SDS011;2038;51.728;6.674;2024-03-06T11:04:35;145.00;;;73.80;;
4047;SDS011;2038;51.728;6.674;2024-03-06T11:07:05;164.47;;;78.93;;
4047;SDS011;2038;51.728;6.674;2024-03-06T11:09:35;168.13;;;72.10;;
4047;SDS011;2038;51.728;6.674;2024-03-06T11:12:03;158.83;;;75.67;;
4047;SDS011;2038;51.728;6.674;2024-03-06T11:14:32;137.67;;;68.37;;
4047;SDS011;2038;51.728;6.674;2024-03-06T11:17:07;167.70;;;76.40;;
4047;SDS011;2038;51.728;6.674;2024-03-06T11:28:11;157.87;;;74.47;;
4047;SDS011;2038;51.728;6.674;2024-03-06T11:30:46;145.93;;;71.17;;
4047;SDS011;2038;51.728;6.674;2024-03-06T11:33:19;151.60;;;68.97;;
4047;SDS011;2038;51.728;6.674;2024-03-06T11:38:57;157.53;;;76.40;;
4047;SDS011;2038;51.728;6.674;2024-03-06T11:44:12;157.90;;;76.40;;
4047;SDS011;2038;51.728;6.674;2024-03-06T11:46:56;155.20;;;75.33;;
4047;SDS011;2038;51.728;6.674;2024-03-06T11:49:25;142.37;;;67.03;;
4047;SDS011;2038;51.728;6.674;2024-03-06T11:52:06;148.87;;;71.27;;
4047;SDS011;2038;51.728;6.674;2024-03-06T11:54:33;149.07;;;69.50;;
4047;SDS011;2038;51.728;6.674;2024-03-06T11:57:01;157.13;;;72.53;;
4047;SDS011;2038;51.728;6.674;2024-03-06T11:59:33;134.73;;;68.77;;
4047;SDS011;2038;51.728;6.674;2024-03-06T12:02:04;139.07;;;66.90;;
4047;SDS011;2038;51.728;6.674;2024-03-06T12:04:31;150.43;;;70.47;;
4047;SDS011;2038;51.728;6.674;2024-03-06T12:07:01;145.07;;;69.03;;
4047;SDS011;2038;51.728;6.674;2024-03-06T12:09:31;127.40;;;62.13;;
4047;SDS011;2038;51.728;6.674;2024-03-06T12:11:59;148.27;;;65.43;;
4047;SDS011;2038;51.728;6.674;2024-03-06T12:14:25;134.73;;;64.60;;
4047;SDS011;2038;51.728;6.674;2024-03-06T12:16:55;137.37;;;67.50;;
4047;SDS011;2038;51.728;6.674;2024-03-06T12:19:31;133.13;;;66.30;;
4047;SDS011;2038;51.728;6.674;2024-03-06T12:21:59;126.30;;;59.37;;
4047;SDS011;2038;51.728;6.674;2024-03-06T12:24:28;121.57;;;59.83;;
4047;SDS011;2038;51.728;6.674;2024-03-06T12:26:59;134.03;;;64.47;;
4047;SDS011;2038;51.728;6.674;2024-03-06T12:29:29;135.97;;;62.70;;
4047;SDS011;2038;51.728;6.674;2024-03-06T12:31:57;121.83;;;60.03;;
4047;SDS011;2038;51.728;6.674;2024-03-06T12:34:25;115.67;;;59.30;;
4047;SDS011;2038;51.728;6.674;2024-03-06T12:36:52;118.57;;;58.00;;
4047;SDS011;2038;51.728;6.674;2024-03-06T12:39:18;117.07;;;52.10;;
4047;SDS011;2038;51.728;6.674;2024-03-06T12:41:48;112.40;;;53.93;;
4047;SDS011;2038;51.728;6.674;2024-03-06T12:44:20;85.40;;;49.47;;
4047;SDS011;2038;51.728;6.674;2024-03-06T12:46:47;97.90;;;49.73;;
4047;SDS011;2038;51.728;6.674;2024-03-06T12:49:14;99.33;;;50.67;;
4047;SDS011;2038;51.728;6.674;2024-03-06T12:51:40;71.43;;;40.13;;
4047;SDS011;2038;51.728;6.674;2024-03-06T12:54:07;67.93;;;39.93;;
4047;SDS011;2038;51.728;6.674;2024-03-06T12:56:33;87.97;;;45.80;;
4047;SDS011;2038;51.728;6.674;2024-03-06T12:59:00;81.47;;;43.00;;
4047;SDS011;2038;51.728;6.674;2024-03-06T13:01:26;84.97;;;44.40;;
4047;SDS011;2038;51.728;6.674;2024-03-06T13:03:52;78.07;;;40.60;;
4047;SDS011;2038;51.728;6.674;2024-03-06T13:06:19;73.60;;;37.37;;
4047;SDS011;2038;51.728;6.674;2024-03-06T13:08:46;68.03;;;36.67;;
4047;SDS011;2038;51.728;6.674;2024-03-06T13:11:13;83.03;;;41.40;;
4047;SDS011;2038;51.728;6.674;2024-03-06T13:13:39;65.43;;;37.07;;
4047;SDS011;2038;51.728;6.674;2024-03-06T13:16:05;56.00;;;31.20;;
4047;SDS011;2038;51.728;6.674;2024-03-06T13:18:32;56.87;;;30.40;;
4047;SDS011;2038;51.728;6.674;2024-03-06T13:20:58;72.40;;;39.73;;
4047;SDS011;2038;51.728;6.674;2024-03-06T13:23:25;67.73;;;38.30;;
4047;SDS011;2038;51.728;6.674;2024-03-06T13:25:52;69.53;;;37.50;;
4047;SDS011;2038;51.728;6.674;2024-03-06T13:28:18;65.47;;;33.67;;
4047;SDS011;2038;51.728;6.674;2024-03-06T13:30:46;58.67;;;30.77;;
4047;SDS011;2038;51.728;6.674;2024-03-06T13:33:12;54.33;;;31.67;;
4047;SDS011;2038;51.728;6.674;2024-03-06T13:35:38;34.43;;;19.40;;
4047;SDS011;2038;51.728;6.674;2024-03-06T13:38:04;45.93;;;22.57;;
4047;SDS011;2038;51.728;6.674;2024-03-06T13:40:31;35.57;;;20.73;;
4047;SDS011;2038;51.728;6.674;2024-03-06T13:42:57;51.80;;;29.20;;
4047;SDS011;2038;51.728;6.674;2024-03-06T13:45:23;46.60;;;27.13;;
4047;SDS011;2038;51.728;6.674;2024-03-06T13:47:50;44.00;;;23.93;;
4047;SDS011;2038;51.728;6.674;2024-03-06T13:50:17;51.53;;;27.43;;
4047;SDS011;2038;51.728;6.674;2024-03-06T13:52:44;38.40;;;22.97;;
4047;SDS011;2038;51.728;6.674;2024-03-06T13:55:10;46.07;;;26.47;;
4047;SDS011;2038;51.728;6.674;2024-03-06T13:57:37;38.30;;;22.73;;
4047;SDS011;2038;51.728;6.674;2024-03-06T14:00:05;41.10;;;23.80;;
4047;SDS011;2038;51.728;6.674;2024-03-06T14:02:43;47.77;;;27.03;;
4047;SDS011;2038;51.728;6.674;2024-03-06T14:05:12;50.80;;;26.03;;
4047;SDS011;2038;51.728;6.674;2024-03-06T14:07:42;51.17;;;26.53;;
4047;SDS011;2038;51.728;6.674;2024-03-06T14:10:08;53.37;;;30.63;;
4047;SDS011;2038;51.728;6.674;2024-03-06T14:12:35;49.90;;;31.83;;
4047;SDS011;2038;51.728;6.674;2024-03-06T14:15:04;54.53;;;30.83;;
4047;SDS011;2038;51.728;6.674;2024-03-06T14:17:37;47.50;;;28.53;;
4047;SDS011;2038;51.728;6.674;2024-03-06T14:20:04;46.00;;;26.90;;
4047;SDS011;2038;51.728;6.674;2024-03-06T14:22:31;42.20;;;26.43;;
4047;SDS011;2038;51.728;6.674;2024-03-06T14:24:57;37.03;;;21.40;;
4047;SDS011;2038;51.728;6.674;2024-03-06T14:27:23;42.27;;;23.23;;
4047;SDS011;2038;51.728;6.674;2024-03-06T14:29:50;44.43;;;25.93;;
4047;SDS011;2038;51.728;6.674;2024-03-06T14:32:19;45.07;;;25.87;;
4047;SDS011;2038;51.728;6.674;2024-03-06T14:34:45;34.97;;;23.90;;
4047;SDS011;2038;51.728;6.674;2024-03-06T14:37:12;38.57;;;23.20;;
4047;SDS011;2038;51.728;6.674;2024-03-06T14:39:38;37.67;;;23.60;;
4047;SDS011;2038;51.728;6.674;2024-03-06T14:42:05;38.13;;;21.70;;
4047;SDS011;2038;51.728;6.674;2024-03-06T14:44:31;37.77;;;24.83;;
4047;SDS011;2038;51.728;6.674;2024-03-06T14:46:58;35.87;;;23.03;;
4047;SDS011;2038;51.728;6.674;2024-03-06T14:49:24;55.37;;;33.30;;
4047;SDS011;2038;51.728;6.674;2024-03-06T14:51:50;53.03;;;34.33;;
4047;SDS011;2038;51.728;6.674;2024-03-06T14:54:18;60.83;;;38.10;;
4047;SDS011;2038;51.728;6.674;2024-03-06T14:56:44;49.83;;;32.57;;
4047;SDS011;2038;51.728;6.674;2024-03-06T14:59:10;57.33;;;32.50;;
4047;SDS011;2038;51.728;6.674;2024-03-06T15:01:36;56.73;;;37.00;;
4047;SDS011;2038;51.728;6.674;2024-03-06T15:04:03;58.10;;;38.53;;